sensor_id;sensor_type;location;lat;lon;timestamp;P1;durP1;ratioP1;P2;durP2;ratioP2
19038;SDS011;9652;49.014;12.052;2023-07-16T00:02:08;2.10;;;1.90;;
19038;SDS011;9652;49.014;12.052;2023-07-16T00:04:35;3.50;;;2.40;;
19038;SDS011;9652;49.014;12.052;2023-07-16T00:07:02;2.27;;;1.93;;
19038;SDS011;9652;49.014;12.052;2023-07-16T00:09:32;4.43;;;2.10;;
19038;SDS011;9652;49.014;12.052;2023-07-16T00:11:59;4.45;;;1.90;;
19038;SDS011;9652;49.014;12.052;2023-07-16T00:14:26;2.20;;;1.80;;
19038;SDS011;9652;49.014;12.052;2023-07-16T00:16:53;2.03;;;1.77;;
19038;SDS011;9652;49.014;12.052;2023-07-16T00:19:20;2.30;;;1.90;;
19038;SDS011;9652;49.014;12.052;2023-07-16T00:21:47;2.67;;;2.17;;
19038;SDS011;9652;49.014;12.052;2023-07-16T00:24:14;2.43;;;1.57;;
19038;SDS011;9652;49.014;12.052;2023-07-16T00:26:42;2.30;;;2.07;;
19038;SDS011;9652;49.014;12.052;2023-07-16T00:29:09;3.53;;;2.10;;
19038;SDS011;9652;49.014;12.052;2023-07-16T00:31:36;1.70;;;1.60;;
19038;SDS011;9652;49.014;12.052;2023-07-16T00:34:03;2.40;;;1.80;;
19038;SDS011;9652;49.014;12.052;2023-07-16T00:36:31;2.70;;;2.07;;
19038;SDS011;9652;49.014;12.052;2023-07-16T00:38:58;2.90;;;2.23;;
19038;SDS011;9652;49.014;12.052;2023-07-16T00:41:25;3.17;;;2.20;;
19038;SDS011;9652;49.014;12.052;2023-07-16T00:43:54;2.53;;;2.00;;
19038;SDS011;9652;49.014;12.052;2023-07-16T00:46:21;3.30;;;2.13;;
19038;SDS011;9652;49.014;12.052;2023-07-16T00:48:49;2.93;;;2.00;;
19038;SDS011;9652;49.014;12.052;2023-07-16T00:51:17;3.90;;;2.00;;
19038;SDS011;9652;49.014;12.052;2023-07-16T00:53:44;2.57;;;2.07;;
19038;SDS011;9652;49.014;12.052;2023-07-16T00:56:12;2.27;;;2.07;;
19038;SDS011;9652;49.014;12.052;2023-07-16T00:58:43;2.00;;;1.80;;
19038;SDS011;9652;49.014;12.052;2023-07-16T01:01:12;2.23;;;2.03;;
19038;SDS011;9652;49.014;12.052;2023-07-16T01:03:39;22.80;;;2.60;;
19038;SDS011;9652;49.014;12.052;2023-07-16T01:06:10;3.33;;;2.60;;
19038;SDS011;9652;49.014;12.052;2023-07-16T01:08:45;2.80;;;2.50;;
19038;SDS011;9652;49.014;12.052;2023-07-16T01:11:18;3.23;;;2.57;;
19038;SDS011;9652;49.014;12.052;2023-07-16T01:13:45;2.60;;;2.20;;
19038;SDS011;9652;49.014;12.052;2023-07-16T01:16:21;3.40;;;2.03;;
19038;SDS011;9652;49.014;12.052;2023-07-16T01:18:50;2.53;;;2.33;;
19038;SDS011;9652;49.014;12.052;2023-07-16T01:21:19;9.60;;;2.47;;
19038;SDS011;9652;49.014;12.052;2023-07-16T01:23:52;3.00;;;2.23;;
19038;SDS011;9652;49.014;12.052;2023-07-16T01:27:00;3.37;;;2.50;;
19038;SDS011;9652;49.014;12.052;2023-07-16T01:29:50;3.53;;;2.07;;
19038;SDS011;9652;49.014;12.052;2023-07-16T01:32:22;3.83;;;2.47;;
19038;SDS011;9652;49.014;12.052;2023-07-16T01:34:51;4.97;;;2.57;;
19038;SDS011;9652;49.014;12.052;2023-07-16T01:37:19;4.47;;;3.03;;
19038;SDS011;9652;49.014;12.052;2023-07-16T01:39:46;5.70;;;2.50;;
19038;SDS011;9652;49.014;12.052;2023-07-16T01:42:13;2.80;;;2.40;;
19038;SDS011;9652;49.014;12.052;2023-07-16T01:44:41;2.63;;;2.20;;
19038;SDS011;9652;49.014;12.052;2023-07-16T01:47:11;3.00;;;2.30;;
19038;SDS011;9652;49.014;12.052;2023-07-16T01:49:42;3.30;;;2.50;;
19038;SDS011;9652;49.014;12.052;2023-07-16T01:52:09;2.97;;;2.30;;
19038;SDS011;9652;49.014;12.052;2023-07-16T01:54:36;4.07;;;2.33;;
19038;SDS011;9652;49.014;12.052;2023-07-16T01:57:03;3.20;;;2.30;;
19038;SDS011;9652;49.014;12.052;2023-07-16T01:59:31;3.17;;;2.37;;
19038;SDS011;9652;49.014;12.052;2023-07-16T02:01:58;2.43;;;2.23;;
19038;SDS011;9652;49.014;12.052;2023-07-16T02:04:26;2.93;;;2.33;;
19038;SDS011;9652;49.014;12.052;2023-07-16T02:06:53;2.87;;;2.57;;
19038;SDS011;9652;49.014;12.052;2023-07-16T02:09:20;6.00;;;2.37;;
19038;SDS011;9652;49.014;12.052;2023-07-16T02:11:48;2.57;;;2.37;;
19038;SDS011;9652;49.014;12.052;2023-07-16T02:14:15;3.43;;;2.50;;
19038;SDS011;9652;49.014;12.052;2023-07-16T02:16:42;2.93;;;2.30;;
19038;SDS011;9652;49.014;12.052;2023-07-16T02:19:10;3.00;;;2.70;;
19038;SDS011;9652;49.014;12.052;2023-07-16T02:21:38;3.83;;;3.10;;
19038;SDS011;9652;49.014;12.052;2023-07-16T02:24:05;3.17;;;2.30;;
19038;SDS011;9652;49.014;12.052;2023-07-16T02:26:32;2.53;;;2.33;;
19038;SDS011;9652;49.014;12.052;2023-07-16T02:29:00;2.90;;;2.40;;
19038;SDS011;9652;49.014;12.052;2023-07-16T02:31:27;4.37;;;2.70;;
19038;SDS011;9652;49.014;12.052;2023-07-16T02:33:54;3.50;;;2.90;;
19038;SDS011;9652;49.014;12.052;2023-07-16T02:36:21;2.73;;;2.43;;
19038;SDS011;9652;49.014;12.052;2023-07-16T02:38:49;3.47;;;2.53;;
19038;SDS011;9652;49.014;12.052;2023-07-16T02:41:17;3.07;;;2.73;;
19038;SDS011;9652;49.014;12.052;2023-07-16T02:43:45;3.47;;;2.33;;
19038;SDS011;9652;49.014;12.052;2023-07-16T02:46:12;3.57;;;2.50;;
19038;SDS011;9652;49.014;12.052;2023-07-16T02:48:40;5.07;;;2.63;;
19038;SDS011;9652;49.014;12.052;2023-07-16T02:51:08;3.43;;;2.70;;
19038;SDS011;9652;49.014;12.052;2023-07-16T02:53:35;2.27;;;2.07;;
19038;SDS011;9652;49.014;12.052;2023-07-16T02:56:03;2.70;;;2.23;;
19038;SDS011;9652;49.014;12.052;2023-07-16T02:58:30;2.43;;;2.20;;
19038;SDS011;9652;49.014;12.052;2023-07-16T03:00:59;3.70;;;2.67;;
19038;SDS011;9652;49.014;12.052;2023-07-16T03:03:26;3.90;;;2.53;;
19038;SDS011;9652;49.014;12.052;2023-07-16T03:05:54;4.83;;;2.73;;
19038;SDS011;9652;49.014;12.052;2023-07-16T03:08:23;3.03;;;2.53;;
19038;SDS011;9652;49.014;12.052;2023-07-16T03:10:55;4.93;;;2.83;;
19038;SDS011;9652;49.014;12.052;2023-07-16T03:13:24;3.40;;;2.83;;
19038;SDS011;9652;49.014;12.052;2023-07-16T03:15:51;3.50;;;2.50;;
19038;SDS011;9652;49.014;12.052;2023-07-16T03:18:18;4.13;;;2.60;;
19038;SDS011;9652;49.014;12.052;2023-07-16T03:20:46;3.40;;;2.50;;
19038;SDS011;9652;49.014;12.052;2023-07-16T03:23:13;4.13;;;2.93;;
19038;SDS011;9652;49.014;12.052;2023-07-16T03:25:40;3.30;;;2.53;;
19038;SDS011;9652;49.014;12.052;2023-07-16T03:28:07;3.67;;;2.77;;
19038;SDS011;9652;49.014;12.052;2023-07-16T03:30:36;3.33;;;2.87;;
19038;SDS011;9652;49.014;12.052;2023-07-16T03:33:03;3.83;;;2.47;;
19038;SDS011;9652;49.014;12.052;2023-07-16T03:35:31;2.63;;;2.43;;
19038;SDS011;9652;49.014;12.052;2023-07-16T03:37:58;3.17;;;2.47;;
19038;SDS011;9652;49.014;12.052;2023-07-16T03:40:27;3.00;;;2.23;;
19038;SDS011;9652;49.014;12.052;2023-07-16T03:42:54;5.67;;;2.93;;
19038;SDS011;9652;49.014;12.052;2023-07-16T03:45:23;2.87;;;2.50;;
19038;SDS011;9652;49.014;12.052;2023-07-16T03:47:51;4.23;;;2.40;;
19038;SDS011;9652;49.014;12.052;2023-07-16T03:50:19;3.00;;;2.60;;
19038;SDS011;9652;49.014;12.052;2023-07-16T03:52:46;3.10;;;2.40;;
19038;SDS011;9652;49.014;12.052;2023-07-16T03:55:13;3.30;;;2.80;;
19038;SDS011;9652;49.014;12.052;2023-07-16T03:57:40;2.80;;;2.07;;
19038;SDS011;9652;49.014;12.052;2023-07-16T04:00:08;3.33;;;2.43;;
19038;SDS011;9652;49.014;12.052;2023-07-16T04:02:39;3.37;;;2.57;;
19038;SDS011;9652;49.014;12.052;2023-07-16T04:05:12;3.13;;;2.80;;
19038;SDS011;9652;49.014;12.052;2023-07-16T04:07:39;3.10;;;2.37;;
19038;SDS011;9652;49.014;12.052;2023-07-16T04:10:07;4.53;;;2.93;;
19038;SDS011;9652;49.014;12.052;2023-07-16T04:12:34;4.07;;;2.63;;
19038;SDS011;9652;49.014;12.052;2023-07-16T04:15:06;2.97;;;2.67;;
19038;SDS011;9652;49.014;12.052;2023-07-16T04:17:35;4.27;;;2.70;;
19038;SDS011;9652;49.014;12.052;2023-07-16T04:20:03;3.20;;;2.50;;
19038;SDS011;9652;49.014;12.052;2023-07-16T04:22:33;3.40;;;2.37;;
19038;SDS011;9652;49.014;12.052;2023-07-16T04:25:01;2.13;;;1.93;;
19038;SDS011;9652;49.014;12.052;2023-07-16T04:27:29;2.50;;;2.30;;
19038;SDS011;9652;49.014;12.052;2023-07-16T04:29:56;3.47;;;2.00;;
19038;SDS011;9652;49.014;12.052;2023-07-16T04:32:23;2.80;;;2.10;;
19038;SDS011;9652;49.014;12.052;2023-07-16T04:34:50;2.40;;;2.00;;
19038;SDS011;9652;49.014;12.052;2023-07-16T04:37:17;3.37;;;2.10;;
19038;SDS011;9652;49.014;12.052;2023-07-16T04:39:45;3.03;;;1.80;;
19038;SDS011;9652;49.014;12.052;2023-07-16T04:42:12;2.37;;;2.00;;
19038;SDS011;9652;49.014;12.052;2023-07-16T04:44:41;3.47;;;1.90;;
19038;SDS011;9652;49.014;12.052;2023-07-16T04:47:09;2.20;;;1.80;;
19038;SDS011;9652;49.014;12.052;2023-07-16T04:49:36;3.90;;;2.00;;
19038;SDS011;9652;49.014;12.052;2023-07-16T04:52:03;2.23;;;1.70;;
19038;SDS011;9652;49.014;12.052;2023-07-16T04:54:34;2.57;;;1.60;;
19038;SDS011;9652;49.014;12.052;2023-07-16T04:57:05;1.57;;;1.23;;
19038;SDS011;9652;49.014;12.052;2023-07-16T04:59:33;2.20;;;1.73;;
19038;SDS011;9652;49.014;12.052;2023-07-16T05:02:01;1.90;;;1.77;;
19038;SDS011;9652;49.014;12.052;2023-07-16T05:04:32;2.13;;;1.47;;
19038;SDS011;9652;49.014;12.052;2023-07-16T05:07:00;2.83;;;1.80;;
19038;SDS011;9652;49.014;12.052;2023-07-16T05:09:28;1.57;;;1.47;;
19038;SDS011;9652;49.014;12.052;2023-07-16T05:11:55;1.97;;;1.40;;
19038;SDS011;9652;49.014;12.052;2023-07-16T05:14:25;1.70;;;1.60;;
19038;SDS011;9652;49.014;12.052;2023-07-16T05:16:54;2.80;;;1.30;;
19038;SDS011;9652;49.014;12.052;2023-07-16T05:19:23;1.80;;;1.40;;
19038;SDS011;9652;49.014;12.052;2023-07-16T05:21:50;2.77;;;1.60;;
19038;SDS011;9652;49.014;12.052;2023-07-16T05:24:17;1.67;;;1.23;;
19038;SDS011;9652;49.014;12.052;2023-07-16T05:26:44;1.77;;;1.30;;
19038;SDS011;9652;49.014;12.052;2023-07-16T05:29:12;2.40;;;1.50;;
19038;SDS011;9652;49.014;12.052;2023-07-16T05:31:41;1.47;;;0.93;;
19038;SDS011;9652;49.014;12.052;2023-07-16T05:34:09;1.70;;;1.60;;
19038;SDS011;9652;49.014;12.052;2023-07-16T05:36:36;2.60;;;1.20;;
19038;SDS011;9652;49.014;12.052;2023-07-16T05:39:03;1.53;;;1.27;;
19038;SDS011;9652;49.014;12.052;2023-07-16T05:41:30;2.17;;;1.40;;
19038;SDS011;9652;49.014;12.052;2023-07-16T05:43:57;1.13;;;1.10;;
19038;SDS011;9652;49.014;12.052;2023-07-16T05:46:24;1.20;;;0.90;;
19038;SDS011;9652;49.014;12.052;2023-07-16T05:48:53;3.20;;;1.40;;
19038;SDS011;9652;49.014;12.052;2023-07-16T05:51:20;1.47;;;1.10;;
19038;SDS011;9652;49.014;12.052;2023-07-16T05:53:47;2.27;;;1.37;;
19038;SDS011;9652;49.014;12.052;2023-07-16T05:56:14;1.30;;;1.20;;
19038;SDS011;9652;49.014;12.052;2023-07-16T05:58:41;6.57;;;1.37;;
19038;SDS011;9652;49.014;12.052;2023-07-16T06:01:08;2.27;;;1.40;;
19038;SDS011;9652;49.014;12.052;2023-07-16T06:03:35;3.67;;;1.53;;
19038;SDS011;9652;49.014;12.052;2023-07-16T06:06:03;1.40;;;1.10;;
19038;SDS011;9652;49.014;12.052;2023-07-16T06:08:30;1.40;;;1.30;;
19038;SDS011;9652;49.014;12.052;2023-07-16T06:10:58;1.80;;;1.20;;
19038;SDS011;9652;49.014;12.052;2023-07-16T06:13:25;2.83;;;1.33;;
19038;SDS011;9652;49.014;12.052;2023-07-16T06:15:52;1.40;;;1.30;;
19038;SDS011;9652;49.014;12.052;2023-07-16T06:18:19;2.70;;;1.20;;
19038;SDS011;9652;49.014;12.052;2023-07-16T06:20:46;1.10;;;1.00;;
19038;SDS011;9652;49.014;12.052;2023-07-16T06:23:15;1.87;;;1.10;;
19038;SDS011;9652;49.014;12.052;2023-07-16T06:25:42;1.60;;;1.20;;
19038;SDS011;9652;49.014;12.052;2023-07-16T06:28:09;2.23;;;1.20;;
19038;SDS011;9652;49.014;12.052;2023-07-16T06:30:37;2.20;;;1.23;;
19038;SDS011;9652;49.014;12.052;2023-07-16T06:33:04;1.60;;;1.20;;
19038;SDS011;9652;49.014;12.052;2023-07-16T06:35:31;2.20;;;1.10;;
19038;SDS011;9652;49.014;12.052;2023-07-16T06:37:59;1.10;;;1.00;;
19038;SDS011;9652;49.014;12.052;2023-07-16T06:40:28;1.53;;;1.37;;
19038;SDS011;9652;49.014;12.052;2023-07-16T06:42:55;2.63;;;1.10;;
19038;SDS011;9652;49.014;12.052;2023-07-16T06:45:22;1.40;;;1.00;;
19038;SDS011;9652;49.014;12.052;2023-07-16T06:47:49;3.20;;;1.17;;
19038;SDS011;9652;49.014;12.052;2023-07-16T06:50:17;1.30;;;1.20;;
19038;SDS011;9652;49.014;12.052;2023-07-16T06:52:44;1.23;;;1.00;;
19038;SDS011;9652;49.014;12.052;2023-07-16T06:55:11;1.30;;;1.10;;
19038;SDS011;9652;49.014;12.052;2023-07-16T06:57:39;1.53;;;0.90;;
19038;SDS011;9652;49.014;12.052;2023-07-16T07:00:07;1.80;;;0.83;;
19038;SDS011;9652;49.014;12.052;2023-07-16T07:02:36;1.20;;;1.00;;
19038;SDS011;9652;49.014;12.052;2023-07-16T07:05:03;0.83;;;0.83;;
19038;SDS011;9652;49.014;12.052;2023-07-16T07:07:31;1.30;;;1.00;;
19038;SDS011;9652;49.014;12.052;2023-07-16T07:09:58;1.00;;;0.90;;
19038;SDS011;9652;49.014;12.052;2023-07-16T07:12:25;1.20;;;0.90;;
19038;SDS011;9652;49.014;12.052;2023-07-16T07:14:54;1.07;;;0.97;;
19038;SDS011;9652;49.014;12.052;2023-07-16T07:17:21;1.40;;;1.10;;
19038;SDS011;9652;49.014;12.052;2023-07-16T07:19:48;2.70;;;1.10;;
19038;SDS011;9652;49.014;12.052;2023-07-16T07:22:15;1.73;;;1.27;;
19038;SDS011;9652;49.014;12.052;2023-07-16T07:24:42;1.00;;;0.90;;
19038;SDS011;9652;49.014;12.052;2023-07-16T07:27:09;2.60;;;1.20;;
19038;SDS011;9652;49.014;12.052;2023-07-16T07:29:36;1.63;;;1.20;;
19038;SDS011;9652;49.014;12.052;2023-07-16T07:32:05;1.10;;;0.90;;
19038;SDS011;9652;49.014;12.052;2023-07-16T07:34:34;1.27;;;1.00;;
19038;SDS011;9652;49.014;12.052;2023-07-16T07:37:01;1.20;;;1.00;;
19038;SDS011;9652;49.014;12.052;2023-07-16T07:39:28;1.73;;;0.90;;
19038;SDS011;9652;49.014;12.052;2023-07-16T07:41:55;1.30;;;0.83;;
19038;SDS011;9652;49.014;12.052;2023-07-16T07:44:22;1.87;;;1.00;;
19038;SDS011;9652;49.014;12.052;2023-07-16T07:46:49;2.63;;;0.93;;
19038;SDS011;9652;49.014;12.052;2023-07-16T07:49:17;3.30;;;0.90;;
19038;SDS011;9652;49.014;12.052;2023-07-16T07:51:44;1.70;;;0.70;;
19038;SDS011;9652;49.014;12.052;2023-07-16T07:54:14;1.30;;;0.90;;
19038;SDS011;9652;49.014;12.052;2023-07-16T07:56:41;1.27;;;0.87;;
19038;SDS011;9652;49.014;12.052;2023-07-16T07:59:08;1.20;;;0.90;;
19038;SDS011;9652;49.014;12.052;2023-07-16T08:01:35;0.80;;;0.70;;
19038;SDS011;9652;49.014;12.052;2023-07-16T08:04:02;1.47;;;0.83;;
19038;SDS011;9652;49.014;12.052;2023-07-16T08:06:31;0.87;;;0.77;;
19038;SDS011;9652;49.014;12.052;2023-07-16T08:08:58;2.07;;;0.83;;
19038;SDS011;9652;49.014;12.052;2023-07-16T08:11:25;1.13;;;0.80;;
19038;SDS011;9652;49.014;12.052;2023-07-16T08:13:52;1.10;;;0.80;;
19038;SDS011;9652;49.014;12.052;2023-07-16T08:16:19;1.67;;;0.60;;
19038;SDS011;9652;49.014;12.052;2023-07-16T08:18:46;2.10;;;0.80;;
19038;SDS011;9652;49.014;12.052;2023-07-16T08:21:13;1.07;;;0.80;;
19038;SDS011;9652;49.014;12.052;2023-07-16T08:23:46;1.60;;;0.90;;
19038;SDS011;9652;49.014;12.052;2023-07-16T08:26:14;1.60;;;0.97;;
19038;SDS011;9652;49.014;12.052;2023-07-16T08:28:42;2.57;;;1.00;;
19038;SDS011;9652;49.014;12.052;2023-07-16T08:31:09;1.37;;;0.90;;
19038;SDS011;9652;49.014;12.052;2023-07-16T08:33:37;0.90;;;0.80;;
19038;SDS011;9652;49.014;12.052;2023-07-16T08:36:05;1.50;;;0.90;;
19038;SDS011;9652;49.014;12.052;2023-07-16T08:38:32;1.33;;;0.80;;
19038;SDS011;9652;49.014;12.052;2023-07-16T08:41:00;3.93;;;1.20;;
19038;SDS011;9652;49.014;12.052;2023-07-16T08:43:28;2.83;;;0.93;;
19038;SDS011;9652;49.014;12.052;2023-07-16T08:45:55;1.47;;;1.10;;
19038;SDS011;9652;49.014;12.052;2023-07-16T08:48:23;1.80;;;0.90;;
19038;SDS011;9652;49.014;12.052;2023-07-16T08:50:52;1.27;;;0.90;;
19038;SDS011;9652;49.014;12.052;2023-07-16T08:53:22;1.00;;;0.90;;
19038;SDS011;9652;49.014;12.052;2023-07-16T08:55:49;0.97;;;0.70;;
19038;SDS011;9652;49.014;12.052;2023-07-16T08:58:17;6.20;;;1.93;;
19038;SDS011;9652;49.014;12.052;2023-07-16T09:00:48;3.77;;;1.00;;
19038;SDS011;9652;49.014;12.052;2023-07-16T09:03:17;2.80;;;1.00;;
19038;SDS011;9652;49.014;12.052;2023-07-16T09:05:46;2.40;;;0.87;;
19038;SDS011;9652;49.014;12.052;2023-07-16T09:08:14;1.70;;;0.90;;
19038;SDS011;9652;49.014;12.052;2023-07-16T09:10:42;3.10;;;1.00;;
19038;SDS011;9652;49.014;12.052;2023-07-16T09:13:10;1.77;;;1.00;;
19038;SDS011;9652;49.014;12.052;2023-07-16T09:15:38;3.33;;;0.90;;
19038;SDS011;9652;49.014;12.052;2023-07-16T09:18:09;1.37;;;0.90;;
19038;SDS011;9652;49.014;12.052;2023-07-16T09:20:39;2.90;;;1.00;;
19038;SDS011;9652;49.014;12.052;2023-07-16T09:23:06;1.73;;;1.00;;
19038;SDS011;9652;49.014;12.052;2023-07-16T09:25:34;4.17;;;1.00;;
19038;SDS011;9652;49.014;12.052;2023-07-16T09:28:02;1.77;;;1.40;;
19038;SDS011;9652;49.014;12.052;2023-07-16T09:30:30;2.60;;;0.90;;
19038;SDS011;9652;49.014;12.052;2023-07-16T09:33:04;1.13;;;0.80;;
19038;SDS011;9652;49.014;12.052;2023-07-16T09:35:37;2.37;;;0.97;;
19038;SDS011;9652;49.014;12.052;2023-07-16T09:38:04;3.97;;;1.10;;
19038;SDS011;9652;49.014;12.052;2023-07-16T09:40:34;1.27;;;0.90;;
19038;SDS011;9652;49.014;12.052;2023-07-16T09:43:02;1.90;;;0.97;;
19038;SDS011;9652;49.014;12.052;2023-07-16T09:45:30;3.50;;;0.90;;
19038;SDS011;9652;49.014;12.052;2023-07-16T09:47:57;1.47;;;1.07;;
19038;SDS011;9652;49.014;12.052;2023-07-16T09:50:26;2.23;;;1.13;;
19038;SDS011;9652;49.014;12.052;2023-07-16T09:52:55;2.73;;;1.23;;
19038;SDS011;9652;49.014;12.052;2023-07-16T09:55:23;1.90;;;1.00;;
19038;SDS011;9652;49.014;12.052;2023-07-16T09:57:52;1.70;;;0.83;;
19038;SDS011;9652;49.014;12.052;2023-07-16T10:00:23;2.37;;;1.37;;
19038;SDS011;9652;49.014;12.052;2023-07-16T10:02:51;2.20;;;1.10;;
19038;SDS011;9652;49.014;12.052;2023-07-16T10:05:20;2.63;;;1.07;;
19038;SDS011;9652;49.014;12.052;2023-07-16T10:07:54;1.58;;;0.98;;
19038;SDS011;9652;49.014;12.052;2023-07-16T10:10:25;3.28;;;1.02;;
19038;SDS011;9652;49.014;12.052;2023-07-16T10:13:06;1.38;;;0.75;;
19038;SDS011;9652;49.014;12.052;2023-07-16T10:15:34;1.65;;;1.10;;
19038;SDS011;9652;49.014;12.052;2023-07-16T10:18:01;0.73;;;0.73;;
19038;SDS011;9652;49.014;12.052;2023-07-16T10:20:30;1.70;;;0.77;;
19038;SDS011;9652;49.014;12.052;2023-07-16T10:23:09;1.63;;;1.10;;
19038;SDS011;9652;49.014;12.052;2023-07-16T10:25:38;1.17;;;0.80;;
19038;SDS011;9652;49.014;12.052;2023-07-16T10:28:07;1.10;;;0.95;;
19038;SDS011;9652;49.014;12.052;2023-07-16T10:30:34;1.80;;;1.02;;
19038;SDS011;9652;49.014;12.052;2023-07-16T10:33:02;1.58;;;0.93;;
19038;SDS011;9652;49.014;12.052;2023-07-16T10:35:41;1.45;;;0.90;;
19038;SDS011;9652;49.014;12.052;2023-07-16T10:38:09;1.70;;;1.15;;
19038;SDS011;9652;49.014;12.052;2023-07-16T10:40:39;1.98;;;1.20;;
19038;SDS011;9652;49.014;12.052;2023-07-16T10:43:07;1.33;;;0.80;;
19038;SDS011;9652;49.014;12.052;2023-07-16T10:45:34;1.58;;;0.88;;
19038;SDS011;9652;49.014;12.052;2023-07-16T10:48:01;0.85;;;0.65;;
19038;SDS011;9652;49.014;12.052;2023-07-16T10:50:31;1.30;;;0.90;;
19038;SDS011;9652;49.014;12.052;2023-07-16T10:53:01;1.33;;;1.10;;
19038;SDS011;9652;49.014;12.052;2023-07-16T10:55:29;1.05;;;0.93;;
19038;SDS011;9652;49.014;12.052;2023-07-16T10:58:03;1.20;;;0.80;;
19038;SDS011;9652;49.014;12.052;2023-07-16T11:00:32;1.60;;;1.00;;
19038;SDS011;9652;49.014;12.052;2023-07-16T11:03:03;1.33;;;1.00;;
19038;SDS011;9652;49.014;12.052;2023-07-16T11:05:30;2.47;;;1.10;;
19038;SDS011;9652;49.014;12.052;2023-07-16T11:07:58;1.67;;;0.90;;
19038;SDS011;9652;49.014;12.052;2023-07-16T11:10:27;1.40;;;0.93;;
19038;SDS011;9652;49.014;12.052;2023-07-16T11:12:55;1.35;;;0.90;;
19038;SDS011;9652;49.014;12.052;2023-07-16T11:15:30;1.65;;;0.90;;
19038;SDS011;9652;49.014;12.052;2023-07-16T11:17:59;1.33;;;0.77;;
19038;SDS011;9652;49.014;12.052;2023-07-16T11:20:26;1.42;;;0.70;;
19038;SDS011;9652;49.014;12.052;2023-07-16T11:22:57;1.42;;;1.02;;
19038;SDS011;9652;49.014;12.052;2023-07-16T11:25:27;2.45;;;1.55;;
19038;SDS011;9652;49.014;12.052;2023-07-16T11:27:54;2.17;;;1.10;;
19038;SDS011;9652;49.014;12.052;2023-07-16T11:30:22;1.55;;;1.17;;
19038;SDS011;9652;49.014;12.052;2023-07-16T11:32:50;1.23;;;1.00;;
19038;SDS011;9652;49.014;12.052;2023-07-16T11:35:18;1.00;;;0.90;;
19038;SDS011;9652;49.014;12.052;2023-07-16T11:37:46;1.42;;;1.15;;
19038;SDS011;9652;49.014;12.052;2023-07-16T11:40:15;3.78;;;1.20;;
19038;SDS011;9652;49.014;12.052;2023-07-16T11:42:46;1.25;;;1.05;;
19038;SDS011;9652;49.014;12.052;2023-07-16T11:45:17;1.30;;;1.10;;
19038;SDS011;9652;49.014;12.052;2023-07-16T11:47:46;1.92;;;1.30;;
19038;SDS011;9652;49.014;12.052;2023-07-16T11:50:13;1.63;;;1.38;;
19038;SDS011;9652;49.014;12.052;2023-07-16T11:52:41;2.20;;;1.05;;
19038;SDS011;9652;49.014;12.052;2023-07-16T11:55:08;1.48;;;1.10;;
19038;SDS011;9652;49.014;12.052;2023-07-16T11:57:35;1.92;;;1.10;;
19038;SDS011;9652;49.014;12.052;2023-07-16T12:00:04;1.40;;;1.08;;
19038;SDS011;9652;49.014;12.052;2023-07-16T12:02:33;4.43;;;1.30;;
19038;SDS011;9652;49.014;12.052;2023-07-16T12:05:00;1.90;;;1.23;;
19038;SDS011;9652;49.014;12.052;2023-07-16T12:07:30;3.38;;;1.27;;
19038;SDS011;9652;49.014;12.052;2023-07-16T12:09:59;2.33;;;1.20;;
19038;SDS011;9652;49.014;12.052;2023-07-16T12:12:27;1.40;;;1.30;;
19038;SDS011;9652;49.014;12.052;2023-07-16T12:14:54;1.15;;;0.98;;
19038;SDS011;9652;49.014;12.052;2023-07-16T12:17:22;1.13;;;1.00;;
19038;SDS011;9652;49.014;12.052;2023-07-16T12:19:49;1.70;;;1.40;;
19038;SDS011;9652;49.014;12.052;2023-07-16T12:22:17;1.60;;;1.25;;
19038;SDS011;9652;49.014;12.052;2023-07-16T12:24:45;1.23;;;1.13;;
19038;SDS011;9652;49.014;12.052;2023-07-16T12:27:13;1.20;;;1.10;;
19038;SDS011;9652;49.014;12.052;2023-07-16T12:29:41;1.20;;;1.10;;
19038;SDS011;9652;49.014;12.052;2023-07-16T12:32:09;2.15;;;1.23;;
19038;SDS011;9652;49.014;12.052;2023-07-16T12:34:37;1.45;;;0.90;;
19038;SDS011;9652;49.014;12.052;2023-07-16T12:37:04;1.42;;;1.30;;
19038;SDS011;9652;49.014;12.052;2023-07-16T12:39:32;1.85;;;1.45;;
19038;SDS011;9652;49.014;12.052;2023-07-16T12:41:59;1.25;;;1.15;;
19038;SDS011;9652;49.014;12.052;2023-07-16T12:44:26;1.52;;;1.02;;
19038;SDS011;9652;49.014;12.052;2023-07-16T12:46:53;1.70;;;1.15;;
19038;SDS011;9652;49.014;12.052;2023-07-16T12:49:20;2.00;;;1.35;;
19038;SDS011;9652;49.014;12.052;2023-07-16T12:51:49;2.75;;;1.60;;
19038;SDS011;9652;49.014;12.052;2023-07-16T12:54:16;2.42;;;1.30;;
19038;SDS011;9652;49.014;12.052;2023-07-16T12:56:43;1.25;;;1.15;;
19038;SDS011;9652;49.014;12.052;2023-07-16T12:59:10;1.88;;;1.02;;
19038;SDS011;9652;49.014;12.052;2023-07-16T13:01:37;3.63;;;1.40;;
19038;SDS011;9652;49.014;12.052;2023-07-16T13:04:04;2.08;;;1.05;;
19038;SDS011;9652;49.014;12.052;2023-07-16T13:06:31;2.13;;;1.35;;
19038;SDS011;9652;49.014;12.052;2023-07-16T13:08:59;1.85;;;1.27;;
19038;SDS011;9652;49.014;12.052;2023-07-16T13:11:26;1.77;;;1.45;;
19038;SDS011;9652;49.014;12.052;2023-07-16T13:13:53;2.42;;;1.23;;
19038;SDS011;9652;49.014;12.052;2023-07-16T13:16:20;1.20;;;1.10;;
19038;SDS011;9652;49.014;12.052;2023-07-16T13:18:47;2.70;;;1.25;;
19038;SDS011;9652;49.014;12.052;2023-07-16T13:21:14;1.23;;;1.13;;
19038;SDS011;9652;49.014;12.052;2023-07-16T13:23:41;1.67;;;1.17;;
19038;SDS011;9652;49.014;12.052;2023-07-16T13:26:10;1.10;;;1.00;;
19038;SDS011;9652;49.014;12.052;2023-07-16T13:28:37;1.42;;;1.05;;
19038;SDS011;9652;49.014;12.052;2023-07-16T13:31:04;1.35;;;1.17;;
19038;SDS011;9652;49.014;12.052;2023-07-16T13:33:32;1.55;;;1.30;;
19038;SDS011;9652;49.014;12.052;2023-07-16T13:36:00;1.25;;;1.15;;
19038;SDS011;9652;49.014;12.052;2023-07-16T13:38:29;2.25;;;1.30;;
19038;SDS011;9652;49.014;12.052;2023-07-16T13:40:56;1.15;;;1.05;;
19038;SDS011;9652;49.014;12.052;2023-07-16T13:43:25;2.00;;;0.90;;
19038;SDS011;9652;49.014;12.052;2023-07-16T13:45:52;1.13;;;0.80;;
19038;SDS011;9652;49.014;12.052;2023-07-16T13:48:19;1.88;;;0.88;;
19038;SDS011;9652;49.014;12.052;2023-07-16T13:50:46;0.73;;;0.73;;
19038;SDS011;9652;49.014;12.052;2023-07-16T13:53:13;1.13;;;1.00;;
19038;SDS011;9652;49.014;12.052;2023-07-16T13:55:40;1.20;;;0.85;;
19038;SDS011;9652;49.014;12.052;2023-07-16T13:58:08;0.80;;;0.80;;
19038;SDS011;9652;49.014;12.052;2023-07-16T14:00:37;1.73;;;1.05;;
19038;SDS011;9652;49.014;12.052;2023-07-16T14:03:04;1.25;;;0.98;;
19038;SDS011;9652;49.014;12.052;2023-07-16T14:05:31;0.85;;;0.85;;
19038;SDS011;9652;49.014;12.052;2023-07-16T14:08:03;2.10;;;0.90;;
19038;SDS011;9652;49.014;12.052;2023-07-16T14:10:30;0.88;;;0.60;;
19038;SDS011;9652;49.014;12.052;2023-07-16T14:12:58;1.05;;;0.95;;
19038;SDS011;9652;49.014;12.052;2023-07-16T14:15:25;0.90;;;0.80;;
19038;SDS011;9652;49.014;12.052;2023-07-16T14:17:53;1.50;;;0.90;;
19038;SDS011;9652;49.014;12.052;2023-07-16T14:20:20;0.98;;;0.85;;
19038;SDS011;9652;49.014;12.052;2023-07-16T14:22:47;0.95;;;0.88;;
19038;SDS011;9652;49.014;12.052;2023-07-16T14:25:14;2.20;;;1.00;;
19038;SDS011;9652;49.014;12.052;2023-07-16T14:27:42;0.80;;;0.80;;
19038;SDS011;9652;49.014;12.052;2023-07-16T14:30:09;0.88;;;0.88;;
19038;SDS011;9652;49.014;12.052;2023-07-16T14:32:37;1.40;;;1.13;;
19038;SDS011;9652;49.014;12.052;2023-07-16T14:35:06;1.17;;;1.00;;
19038;SDS011;9652;49.014;12.052;2023-07-16T14:37:33;1.27;;;1.13;;
19038;SDS011;9652;49.014;12.052;2023-07-16T14:40:00;1.55;;;1.00;;
19038;SDS011;9652;49.014;12.052;2023-07-16T14:42:30;1.88;;;1.10;;
19038;SDS011;9652;49.014;12.052;2023-07-16T14:44:57;0.93;;;0.80;;
19038;SDS011;9652;49.014;12.052;2023-07-16T14:47:24;1.10;;;1.00;;
19038;SDS011;9652;49.014;12.052;2023-07-16T14:49:51;1.40;;;0.90;;
19038;SDS011;9652;49.014;12.052;2023-07-16T14:52:20;1.10;;;1.00;;
19038;SDS011;9652;49.014;12.052;2023-07-16T14:54:47;1.13;;;1.02;;